Sault Ste. Marie, Ontario

11:29 AM EST on February 07, 2016 (GMT -0500)
IONSAULT2 | | Change Station
CLOSE
Current Station
Personal Weather Station
Location: Sault Ste. Marie, ON
Elevation: 684 ft
Nearby Weather Stations

Elev 684 ft 46.55 °N, 84.41 °W | Updated 22 seconds ago

Overcast
Overcast
32.7 °F
Feels Like 33 °F
N
0.0
Wind Variable Wind from NNE
Gusts 3.4 mph

Today is forecast to be nearly the same temperature as yesterday.

Today
High -- | Low -- °F
--% Chance of Precip.
Yesterday
High -- | Low -- °F
Precip. -- in
Pressure 29.70 in
Visibility 2.0 miles
Clouds Scattered Clouds 700 ft
Overcast 2100 ft
Windchill 33 °F
Dew Point 25 °F
Humidity 73%
Rainfall 0.00 in
Snow Depth Not available.
7:54 AM 5:50 PM
Waning Crescent, 1% visible
METAR KCIU 071615Z AUTO 13017KT 2SM SCT007 OVC021 01/00 A2970 RMK AO1
Pressure 29.70 in
Visibility 2.0 miles
Clouds Scattered Clouds 700 ft
Overcast 2100 ft
Windchill 33 °F
Dew Point 25 °F
Humidity 73%
Rainfall 0.00 in
Snow Depth Not available.
7:54 AM 5:50 PM
Waning Crescent, 1% visible
METAR KCIU 071615Z AUTO 13017KT 2SM SCT007 OVC021 01/00 A2970 RMK AO1

10-Day Weather Forecast

Almanac

Astronomy

Feb. 07, 2016 Rise Set
Actual Time
Civil Twilight
Nautical Twilight
Astronomical Twilight
Moon
Length of Visible Light
Length of Day
Tomorrow will be .
, % of the Moon is Illuminated

Today's Extremes

Country Highs Country Lows

Community

WunderPhotos

Upload Photos

1,891,221 photos uploaded!

WunderBlog® & News

Nearby

Air Quality

  Air Quality AQ Index Pollutant
Not available.

Snow Depth

Station Depth Elevation

Earthquake Activity

City Distance Mag. Time & Date
Minimum magnitude displayed is 2.5.

Coastal Water Temperatures

Place Temperature

Stations

Nearby Weather Stations

Station Location Temp. Windchill Dew Point Humidity Wind Precip. Elev Updated Type
                   

Watches & Warnings

There are currently no watches in effect.